sensor_id;sensor_type;location;lat;lon;timestamp;P1;durP1;ratioP1;P2;durP2;ratioP2
10550;SDS011;5324;50.684;3.862;2023-04-28T00:02:19;25.03;;;18.37;;
10550;SDS011;5324;50.684;3.862;2023-04-28T00:04:45;27.23;;;18.33;;
10550;SDS011;5324;50.684;3.862;2023-04-28T00:07:11;27.97;;;18.23;;
10550;SDS011;5324;50.684;3.862;2023-04-28T00:09:37;25.47;;;18.03;;
10550;SDS011;5324;50.684;3.862;2023-04-28T00:12:03;26.70;;;17.70;;
10550;SDS011;5324;50.684;3.862;2023-04-28T00:14:29;31.37;;;19.50;;
10550;SDS011;5324;50.684;3.862;2023-04-28T00:16:55;27.90;;;19.87;;
10550;SDS011;5324;50.684;3.862;2023-04-28T00:19:23;27.50;;;19.07;;
10550;SDS011;5324;50.684;3.862;2023-04-28T00:21:49;28.37;;;19.47;;
10550;SDS011;5324;50.684;3.862;2023-04-28T00:24:15;27.43;;;18.33;;
10550;SDS011;5324;50.684;3.862;2023-04-28T00:26:42;25.90;;;19.47;;
10550;SDS011;5324;50.684;3.862;2023-04-28T00:29:08;30.20;;;19.63;;
10550;SDS011;5324;50.684;3.862;2023-04-28T00:31:34;28.43;;;18.73;;
10550;SDS011;5324;50.684;3.862;2023-04-28T00:34:00;29.23;;;19.77;;
10550;SDS011;5324;50.684;3.862;2023-04-28T00:36:26;27.83;;;19.43;;
10550;SDS011;5324;50.684;3.862;2023-04-28T00:38:56;29.90;;;19.27;;
10550;SDS011;5324;50.684;3.862;2023-04-28T00:41:22;28.00;;;19.00;;
10550;SDS011;5324;50.684;3.862;2023-04-28T00:43:48;27.10;;;19.43;;
10550;SDS011;5324;50.684;3.862;2023-04-28T00:46:21;26.50;;;18.20;;
10550;SDS011;5324;50.684;3.862;2023-04-28T00:48:48;24.63;;;18.03;;
10550;SDS011;5324;50.684;3.862;2023-04-28T00:51:14;27.67;;;19.47;;
10550;SDS011;5324;50.684;3.862;2023-04-28T00:53:49;29.20;;;18.40;;
10550;SDS011;5324;50.684;3.862;2023-04-28T00:56:15;29.60;;;18.70;;
10550;SDS011;5324;50.684;3.862;2023-04-28T00:58:41;25.67;;;18.37;;
10550;SDS011;5324;50.684;3.862;2023-04-28T01:01:08;25.33;;;16.50;;
10550;SDS011;5324;50.684;3.862;2023-04-28T01:03:35;26.57;;;17.80;;
10550;SDS011;5324;50.684;3.862;2023-04-28T01:06:05;24.13;;;18.50;;
10550;SDS011;5324;50.684;3.862;2023-04-28T01:08:31;25.63;;;17.43;;
10550;SDS011;5324;50.684;3.862;2023-04-28T01:10:58;26.57;;;18.43;;
10550;SDS011;5324;50.684;3.862;2023-04-28T01:13:24;26.33;;;17.87;;
10550;SDS011;5324;50.684;3.862;2023-04-28T01:15:50;26.00;;;17.20;;
10550;SDS011;5324;50.684;3.862;2023-04-28T01:18:16;23.53;;;16.17;;
10550;SDS011;5324;50.684;3.862;2023-04-28T01:20:42;27.67;;;16.90;;
10550;SDS011;5324;50.684;3.862;2023-04-28T01:23:12;25.80;;;17.70;;
10550;SDS011;5324;50.684;3.862;2023-04-28T01:25:38;22.13;;;17.63;;
10550;SDS011;5324;50.684;3.862;2023-04-28T01:28:04;23.37;;;17.03;;
10550;SDS011;5324;50.684;3.862;2023-04-28T01:30:30;25.67;;;17.53;;
10550;SDS011;5324;50.684;3.862;2023-04-28T01:32:56;24.17;;;17.50;;
10550;SDS011;5324;50.684;3.862;2023-04-28T01:35:22;24.27;;;18.00;;
10550;SDS011;5324;50.684;3.862;2023-04-28T01:37:48;23.83;;;17.97;;
10550;SDS011;5324;50.684;3.862;2023-04-28T01:40:14;24.23;;;18.13;;
10550;SDS011;5324;50.684;3.862;2023-04-28T01:42:40;24.67;;;17.13;;
10550;SDS011;5324;50.684;3.862;2023-04-28T01:45:07;25.57;;;18.03;;
10550;SDS011;5324;50.684;3.862;2023-04-28T01:47:33;24.60;;;17.33;;
10550;SDS011;5324;50.684;3.862;2023-04-28T01:50:00;24.73;;;17.30;;
10550;SDS011;5324;50.684;3.862;2023-04-28T01:52:26;24.87;;;17.33;;
10550;SDS011;5324;50.684;3.862;2023-04-28T01:54:53;24.93;;;16.97;;
10550;SDS011;5324;50.684;3.862;2023-04-28T01:57:20;22.93;;;15.10;;
10550;SDS011;5324;50.684;3.862;2023-04-28T01:59:46;21.40;;;16.37;;
10550;SDS011;5324;50.684;3.862;2023-04-28T02:02:13;25.80;;;17.73;;
10550;SDS011;5324;50.684;3.862;2023-04-28T02:04:39;22.57;;;17.57;;
10550;SDS011;5324;50.684;3.862;2023-04-28T02:07:05;23.90;;;17.50;;
10550;SDS011;5324;50.684;3.862;2023-04-28T02:09:32;22.97;;;17.03;;
10550;SDS011;5324;50.684;3.862;2023-04-28T02:11:58;24.73;;;17.80;;
10550;SDS011;5324;50.684;3.862;2023-04-28T02:14:26;25.70;;;18.50;;
10550;SDS011;5324;50.684;3.862;2023-04-28T02:16:52;24.03;;;17.77;;
10550;SDS011;5324;50.684;3.862;2023-04-28T02:19:18;24.17;;;17.63;;
10550;SDS011;5324;50.684;3.862;2023-04-28T02:21:44;25.63;;;16.90;;
10550;SDS011;5324;50.684;3.862;2023-04-28T02:24:10;22.13;;;15.40;;
10550;SDS011;5324;50.684;3.862;2023-04-28T02:26:36;22.43;;;15.83;;
10550;SDS011;5324;50.684;3.862;2023-04-28T02:29:02;21.63;;;15.23;;
10550;SDS011;5324;50.684;3.862;2023-04-28T02:31:28;18.97;;;14.13;;
10550;SDS011;5324;50.684;3.862;2023-04-28T02:33:54;18.10;;;12.97;;
10550;SDS011;5324;50.684;3.862;2023-04-28T02:36:20;17.50;;;12.80;;
10550;SDS011;5324;50.684;3.862;2023-04-28T02:38:46;14.53;;;11.37;;
10550;SDS011;5324;50.684;3.862;2023-04-28T02:41:12;16.13;;;11.97;;
10550;SDS011;5324;50.684;3.862;2023-04-28T02:43:40;15.47;;;11.97;;
10550;SDS011;5324;50.684;3.862;2023-04-28T02:46:06;17.03;;;11.23;;
10550;SDS011;5324;50.684;3.862;2023-04-28T02:48:33;16.03;;;11.60;;
10550;SDS011;5324;50.684;3.862;2023-04-28T02:51:00;16.40;;;12.07;;
10550;SDS011;5324;50.684;3.862;2023-04-28T02:53:26;18.23;;;11.40;;
10550;SDS011;5324;50.684;3.862;2023-04-28T02:55:52;15.17;;;10.90;;
10550;SDS011;5324;50.684;3.862;2023-04-28T02:58:19;12.60;;;10.50;;
10550;SDS011;5324;50.684;3.862;2023-04-28T03:00:45;15.20;;;10.70;;
10550;SDS011;5324;50.684;3.862;2023-04-28T03:03:11;14.33;;;9.77;;
10550;SDS011;5324;50.684;3.862;2023-04-28T03:05:37;9.60;;;8.43;;
10550;SDS011;5324;50.684;3.862;2023-04-28T03:08:05;11.53;;;9.03;;
10550;SDS011;5324;50.684;3.862;2023-04-28T03:10:31;12.63;;;8.80;;
10550;SDS011;5324;50.684;3.862;2023-04-28T03:12:57;9.70;;;8.50;;
10550;SDS011;5324;50.684;3.862;2023-04-28T03:15:23;14.63;;;9.47;;
10550;SDS011;5324;50.684;3.862;2023-04-28T03:17:50;12.17;;;9.00;;
10550;SDS011;5324;50.684;3.862;2023-04-28T03:20:16;9.50;;;8.50;;
10550;SDS011;5324;50.684;3.862;2023-04-28T03:22:43;11.33;;;8.67;;
10550;SDS011;5324;50.684;3.862;2023-04-28T03:25:09;12.47;;;9.10;;
10550;SDS011;5324;50.684;3.862;2023-04-28T03:27:35;11.83;;;9.00;;
10550;SDS011;5324;50.684;3.862;2023-04-28T03:30:02;11.57;;;8.57;;
10550;SDS011;5324;50.684;3.862;2023-04-28T03:32:28;10.23;;;8.80;;
10550;SDS011;5324;50.684;3.862;2023-04-28T03:34:54;12.33;;;9.17;;
10550;SDS011;5324;50.684;3.862;2023-04-28T03:37:20;13.87;;;9.13;;
10550;SDS011;5324;50.684;3.862;2023-04-28T03:39:46;10.73;;;8.50;;
10550;SDS011;5324;50.684;3.862;2023-04-28T03:42:12;9.67;;;8.63;;
10550;SDS011;5324;50.684;3.862;2023-04-28T03:44:38;13.13;;;8.67;;
10550;SDS011;5324;50.684;3.862;2023-04-28T03:47:04;12.77;;;10.13;;
10550;SDS011;5324;50.684;3.862;2023-04-28T03:49:30;9.77;;;8.20;;
10550;SDS011;5324;50.684;3.862;2023-04-28T03:51:57;9.80;;;8.13;;
10550;SDS011;5324;50.684;3.862;2023-04-28T03:54:23;10.17;;;7.90;;
10550;SDS011;5324;50.684;3.862;2023-04-28T03:56:49;10.40;;;7.60;;
10550;SDS011;5324;50.684;3.862;2023-04-28T03:59:15;8.93;;;7.27;;
10550;SDS011;5324;50.684;3.862;2023-04-28T04:01:41;7.43;;;6.67;;
10550;SDS011;5324;50.684;3.862;2023-04-28T04:04:07;6.87;;;6.23;;
10550;SDS011;5324;50.684;3.862;2023-04-28T04:06:35;7.50;;;6.27;;
10550;SDS011;5324;50.684;3.862;2023-04-28T04:09:01;6.53;;;5.80;;
10550;SDS011;5324;50.684;3.862;2023-04-28T04:11:27;6.33;;;5.37;;
10550;SDS011;5324;50.684;3.862;2023-04-28T04:13:55;6.37;;;5.37;;
10550;SDS011;5324;50.684;3.862;2023-04-28T04:16:21;6.23;;;5.33;;
10550;SDS011;5324;50.684;3.862;2023-04-28T04:18:47;5.83;;;5.23;;
10550;SDS011;5324;50.684;3.862;2023-04-28T04:21:13;6.10;;;5.50;;
10550;SDS011;5324;50.684;3.862;2023-04-28T04:23:39;5.77;;;5.17;;
10550;SDS011;5324;50.684;3.862;2023-04-28T04:26:06;5.90;;;5.37;;
10550;SDS011;5324;50.684;3.862;2023-04-28T04:28:32;7.23;;;5.57;;
10550;SDS011;5324;50.684;3.862;2023-04-28T04:30:58;7.30;;;6.33;;
10550;SDS011;5324;50.684;3.862;2023-04-28T04:33:24;6.23;;;5.63;;
10550;SDS011;5324;50.684;3.862;2023-04-28T04:35:50;6.73;;;6.00;;
10550;SDS011;5324;50.684;3.862;2023-04-28T04:38:16;7.57;;;6.03;;
10550;SDS011;5324;50.684;3.862;2023-04-28T04:40:42;8.87;;;6.70;;
10550;SDS011;5324;50.684;3.862;2023-04-28T04:43:08;7.27;;;6.57;;
10550;SDS011;5324;50.684;3.862;2023-04-28T04:45:34;7.67;;;6.27;;
10550;SDS011;5324;50.684;3.862;2023-04-28T04:48:01;7.10;;;6.40;;
10550;SDS011;5324;50.684;3.862;2023-04-28T04:50:27;7.30;;;6.57;;
10550;SDS011;5324;50.684;3.862;2023-04-28T04:52:53;7.60;;;6.30;;
10550;SDS011;5324;50.684;3.862;2023-04-28T04:55:20;7.20;;;6.00;;
10550;SDS011;5324;50.684;3.862;2023-04-28T04:57:46;6.87;;;6.17;;
10550;SDS011;5324;50.684;3.862;2023-04-28T05:00:12;7.50;;;6.70;;
10550;SDS011;5324;50.684;3.862;2023-04-28T05:02:40;6.57;;;5.63;;
10550;SDS011;5324;50.684;3.862;2023-04-28T05:05:06;7.90;;;6.37;;
10550;SDS011;5324;50.684;3.862;2023-04-28T05:07:33;7.07;;;5.87;;
10550;SDS011;5324;50.684;3.862;2023-04-28T05:09:59;5.77;;;5.23;;
10550;SDS011;5324;50.684;3.862;2023-04-28T05:12:25;6.60;;;5.90;;
10550;SDS011;5324;50.684;3.862;2023-04-28T05:14:51;6.63;;;5.73;;
10550;SDS011;5324;50.684;3.862;2023-04-28T05:17:18;6.50;;;5.27;;
10550;SDS011;5324;50.684;3.862;2023-04-28T05:19:44;6.37;;;5.77;;
10550;SDS011;5324;50.684;3.862;2023-04-28T05:22:10;6.50;;;5.90;;
10550;SDS011;5324;50.684;3.862;2023-04-28T05:24:36;5.17;;;4.67;;
10550;SDS011;5324;50.684;3.862;2023-04-28T05:27:02;6.47;;;4.60;;
10550;SDS011;5324;50.684;3.862;2023-04-28T05:29:28;5.10;;;4.60;;
10550;SDS011;5324;50.684;3.862;2023-04-28T05:31:55;5.03;;;4.50;;
10550;SDS011;5324;50.684;3.862;2023-04-28T05:34:21;4.27;;;3.80;;
10550;SDS011;5324;50.684;3.862;2023-04-28T05:36:47;4.00;;;3.67;;
10550;SDS011;5324;50.684;3.862;2023-04-28T05:39:13;4.10;;;3.80;;
10550;SDS011;5324;50.684;3.862;2023-04-28T05:41:39;4.00;;;3.13;;
10550;SDS011;5324;50.684;3.862;2023-04-28T05:44:05;3.90;;;3.57;;
10550;SDS011;5324;50.684;3.862;2023-04-28T05:46:31;3.53;;;3.23;;
10550;SDS011;5324;50.684;3.862;2023-04-28T05:48:57;3.53;;;3.17;;
10550;SDS011;5324;50.684;3.862;2023-04-28T05:51:23;3.60;;;3.30;;
10550;SDS011;5324;50.684;3.862;2023-04-28T05:53:49;4.37;;;3.97;;
10550;SDS011;5324;50.684;3.862;2023-04-28T05:56:15;4.30;;;3.90;;
10550;SDS011;5324;50.684;3.862;2023-04-28T05:58:42;4.20;;;3.80;;
10550;SDS011;5324;50.684;3.862;2023-04-28T06:01:13;4.33;;;3.90;;
10550;SDS011;5324;50.684;3.862;2023-04-28T06:03:39;4.07;;;3.67;;
10550;SDS011;5324;50.684;3.862;2023-04-28T06:06:06;4.73;;;4.23;;
10550;SDS011;5324;50.684;3.862;2023-04-28T06:08:32;4.23;;;3.83;;
10550;SDS011;5324;50.684;3.862;2023-04-28T06:10:58;3.90;;;3.60;;
10550;SDS011;5324;50.684;3.862;2023-04-28T06:13:24;4.33;;;3.93;;
10550;SDS011;5324;50.684;3.862;2023-04-28T06:15:50;4.27;;;3.87;;
10550;SDS011;5324;50.684;3.862;2023-04-28T06:18:16;4.50;;;4.10;;
10550;SDS011;5324;50.684;3.862;2023-04-28T06:20:42;5.53;;;4.40;;
10550;SDS011;5324;50.684;3.862;2023-04-28T06:23:08;4.47;;;4.07;;
10550;SDS011;5324;50.684;3.862;2023-04-28T06:25:35;6.17;;;4.83;;
10550;SDS011;5324;50.684;3.862;2023-04-28T06:28:02;5.00;;;4.50;;
10550;SDS011;5324;50.684;3.862;2023-04-28T06:30:28;4.70;;;4.20;;
10550;SDS011;5324;50.684;3.862;2023-04-28T06:32:55;4.80;;;4.40;;
10550;SDS011;5324;50.684;3.862;2023-04-28T06:35:21;3.70;;;3.40;;
10550;SDS011;5324;50.684;3.862;2023-04-28T06:37:48;3.93;;;3.63;;
10550;SDS011;5324;50.684;3.862;2023-04-28T06:40:14;3.57;;;3.27;;
10550;SDS011;5324;50.684;3.862;2023-04-28T06:42:40;3.17;;;2.87;;
10550;SDS011;5324;50.684;3.862;2023-04-28T06:45:06;3.73;;;3.43;;
10550;SDS011;5324;50.684;3.862;2023-04-28T06:47:33;3.37;;;3.03;;
10550;SDS011;5324;50.684;3.862;2023-04-28T06:50:00;3.20;;;2.90;;
10550;SDS011;5324;50.684;3.862;2023-04-28T06:52:27;2.77;;;2.57;;
10550;SDS011;5324;50.684;3.862;2023-04-28T06:54:54;4.47;;;2.90;;
10550;SDS011;5324;50.684;3.862;2023-04-28T06:57:20;2.57;;;2.37;;
10550;SDS011;5324;50.684;3.862;2023-04-28T06:59:46;2.60;;;2.40;;
10550;SDS011;5324;50.684;3.862;2023-04-28T07:02:12;2.10;;;2.00;;
10550;SDS011;5324;50.684;3.862;2023-04-28T07:04:38;1.67;;;1.57;;
10550;SDS011;5324;50.684;3.862;2023-04-28T07:07:04;1.87;;;1.73;;
10550;SDS011;5324;50.684;3.862;2023-04-28T07:09:33;1.80;;;1.70;;
10550;SDS011;5324;50.684;3.862;2023-04-28T07:11:59;2.20;;;1.37;;
10550;SDS011;5324;50.684;3.862;2023-04-28T07:14:28;1.80;;;1.70;;
10550;SDS011;5324;50.684;3.862;2023-04-28T07:16:54;2.00;;;1.80;;
10550;SDS011;5324;50.684;3.862;2023-04-28T07:19:20;1.90;;;1.80;;
10550;SDS011;5324;50.684;3.862;2023-04-28T07:21:46;1.92;;;1.73;;
10550;SDS011;5324;50.684;3.862;2023-04-28T07:24:12;1.55;;;1.45;;
10550;SDS011;5324;50.684;3.862;2023-04-28T07:26:38;1.55;;;1.45;;
10550;SDS011;5324;50.684;3.862;2023-04-28T07:29:04;1.38;;;1.27;;
10550;SDS011;5324;50.684;3.862;2023-04-28T07:31:33;1.13;;;0.95;;
10550;SDS011;5324;50.684;3.862;2023-04-28T07:33:59;0.85;;;0.85;;
10550;SDS011;5324;50.684;3.862;2023-04-28T07:36:25;1.20;;;1.20;;
10550;SDS011;5324;50.684;3.862;2023-04-28T07:38:51;1.52;;;1.27;;
10550;SDS011;5324;50.684;3.862;2023-04-28T07:41:17;0.93;;;0.93;;
10550;SDS011;5324;50.684;3.862;2023-04-28T07:43:43;0.98;;;0.98;;
10550;SDS011;5324;50.684;3.862;2023-04-28T07:46:09;1.95;;;1.20;;
10550;SDS011;5324;50.684;3.862;2023-04-28T07:48:35;1.10;;;1.10;;
10550;SDS011;5324;50.684;3.862;2023-04-28T07:51:01;0.65;;;0.65;;
10550;SDS011;5324;50.684;3.862;2023-04-28T07:53:29;1.50;;;0.80;;
10550;SDS011;5324;50.684;3.862;2023-04-28T07:55:56;0.73;;;0.73;;
10550;SDS011;5324;50.684;3.862;2023-04-28T07:58:22;0.80;;;0.80;;
10550;SDS011;5324;50.684;3.862;2023-04-28T08:00:48;0.70;;;0.70;;
10550;SDS011;5324;50.684;3.862;2023-04-28T08:03:15;1.08;;;1.00;;
10550;SDS011;5324;50.684;3.862;2023-04-28T08:05:43;0.80;;;0.80;;
10550;SDS011;5324;50.684;3.862;2023-04-28T08:08:09;0.80;;;0.80;;
10550;SDS011;5324;50.684;3.862;2023-04-28T08:10:35;1.05;;;1.00;;
10550;SDS011;5324;50.684;3.862;2023-04-28T08:13:04;1.02;;;1.02;;
10550;SDS011;5324;50.684;3.862;2023-04-28T08:15:30;3.55;;;1.20;;
10550;SDS011;5324;50.684;3.862;2023-04-28T08:17:56;1.00;;;1.00;;
10550;SDS011;5324;50.684;3.862;2023-04-28T08:20:22;1.00;;;1.00;;
10550;SDS011;5324;50.684;3.862;2023-04-28T08:22:48;1.30;;;1.30;;
10550;SDS011;5324;50.684;3.862;2023-04-28T08:25:14;1.08;;;1.08;;
10550;SDS011;5324;50.684;3.862;2023-04-28T08:27:42;1.70;;;1.40;;
10550;SDS011;5324;50.684;3.862;2023-04-28T08:30:08;1.50;;;1.20;;
10550;SDS011;5324;50.684;3.862;2023-04-28T08:32:34;1.88;;;1.08;;
10550;SDS011;5324;50.684;3.862;2023-04-28T08:35:00;2.75;;;1.30;;
10550;SDS011;5324;50.684;3.862;2023-04-28T08:37:27;1.23;;;1.20;;
10550;SDS011;5324;50.684;3.862;2023-04-28T08:39:53;1.52;;;1.52;;
10550;SDS011;5324;50.684;3.862;2023-04-28T08:42:29;1.63;;;1.30;;
10550;SDS011;5324;50.684;3.862;2023-04-28T08:44:56;2.17;;;1.83;;
10550;SDS011;5324;50.684;3.862;2023-04-28T08:47:23;1.85;;;1.75;;
10550;SDS011;5324;50.684;3.862;2023-04-28T08:49:53;2.20;;;2.00;;
10550;SDS011;5324;50.684;3.862;2023-04-28T08:52:20;1.88;;;1.77;;
10550;SDS011;5324;50.684;3.862;2023-04-28T08:54:47;2.17;;;1.75;;
10550;SDS011;5324;50.684;3.862;2023-04-28T08:57:14;2.15;;;1.95;;
10550;SDS011;5324;50.684;3.862;2023-04-28T08:59:40;2.33;;;2.10;;
10550;SDS011;5324;50.684;3.862;2023-04-28T09:02:09;3.00;;;1.85;;
10550;SDS011;5324;50.684;3.862;2023-04-28T09:04:35;1.67;;;1.58;;
10550;SDS011;5324;50.684;3.862;2023-04-28T09:07:02;2.17;;;1.75;;
10550;SDS011;5324;50.684;3.862;2023-04-28T09:09:28;1.80;;;1.70;;
10550;SDS011;5324;50.684;3.862;2023-04-28T09:12:01;1.48;;;1.27;;
10550;SDS011;5324;50.684;3.862;2023-04-28T09:14:29;1.10;;;1.10;;
10550;SDS011;5324;50.684;3.862;2023-04-28T09:16:58;1.85;;;0.98;;
10550;SDS011;5324;50.684;3.862;2023-04-28T09:19:24;1.10;;;1.00;;
10550;SDS011;5324;50.684;3.862;2023-04-28T09:21:58;0.90;;;0.90;;
10550;SDS011;5324;50.684;3.862;2023-04-28T09:24:31;1.17;;;0.93;;
10550;SDS011;5324;50.684;3.862;2023-04-28T09:27:01;0.80;;;0.80;;
10550;SDS011;5324;50.684;3.862;2023-04-28T09:29:32;1.95;;;0.80;;
10550;SDS011;5324;50.684;3.862;2023-04-28T09:32:14;0.93;;;0.90;;
10550;SDS011;5324;50.684;3.862;2023-04-28T09:34:47;2.45;;;0.82;;
10550;SDS011;5324;50.684;3.862;2023-04-28T09:37:17;1.10;;;1.10;;
10550;SDS011;5324;50.684;3.862;2023-04-28T09:39:47;1.15;;;1.15;;
10550;SDS011;5324;50.684;3.862;2023-04-28T09:45:20;1.23;;;0.73;;
10550;SDS011;5324;50.684;3.862;2023-04-28T09:47:46;0.68;;;0.68;;
10550;SDS011;5324;50.684;3.862;2023-04-28T09:50:13;0.80;;;0.80;;
10550;SDS011;5324;50.684;3.862;2023-04-28T09:52:41;0.85;;;0.85;;
10550;SDS011;5324;50.684;3.862;2023-04-28T09:55:09;1.05;;;1.05;;
10550;SDS011;5324;50.684;3.862;2023-04-28T09:57:36;1.00;;;0.98;;
10550;SDS011;5324;50.684;3.862;2023-04-28T10:00:03;1.30;;;1.10;;
10550;SDS011;5324;50.684;3.862;2023-04-28T10:02:30;1.35;;;1.20;;
10550;SDS011;5324;50.684;3.862;2023-04-28T10:04:56;1.20;;;1.20;;
10550;SDS011;5324;50.684;3.862;2023-04-28T10:07:22;2.15;;;1.13;;
10550;SDS011;5324;50.684;3.862;2023-04-28T10:09:49;1.38;;;1.27;;
10550;SDS011;5324;50.684;3.862;2023-04-28T10:12:18;3.38;;;1.58;;
10550;SDS011;5324;50.684;3.862;2023-04-28T10:14:45;1.33;;;1.23;;
10550;SDS011;5324;50.684;3.862;2023-04-28T10:17:14;1.52;;;1.42;;
10550;SDS011;5324;50.684;3.862;2023-04-28T10:19:43;1.20;;;1.20;;
10550;SDS011;5324;50.684;3.862;2023-04-28T10:27:31;1.52;;;1.45;;
10550;SDS011;5324;50.684;3.862;2023-04-28T10:30:14;2.00;;;1.90;;
10550;SDS011;5324;50.684;3.862;2023-04-28T10:32:41;2.75;;;2.20;;
10550;SDS011;5324;50.684;3.862;2023-04-28T10:38:01;2.40;;;1.73;;
10550;SDS011;5324;50.684;3.862;2023-04-28T10:40:37;1.88;;;1.77;;
10550;SDS011;5324;50.684;3.862;2023-04-28T10:43:04;1.70;;;1.60;;
10550;SDS011;5324;50.684;3.862;2023-04-28T10:48:15;2.60;;;1.40;;
10550;SDS011;5324;50.684;3.862;2023-04-28T10:56:13;1.98;;;1.88;;
10550;SDS011;5324;50.684;3.862;2023-04-28T10:58:41;2.10;;;2.00;;
10550;SDS011;5324;50.684;3.862;2023-04-28T11:06:40;1.42;;;1.33;;
10550;SDS011;5324;50.684;3.862;2023-04-28T11:11:32;1.27;;;1.17;;
10550;SDS011;5324;50.684;3.862;2023-04-28T11:16:48;1.55;;;1.27;;
10550;SDS011;5324;50.684;3.862;2023-04-28T11:19:24;1.33;;;1.30;;
10550;SDS011;5324;50.684;3.862;2023-04-28T11:21:50;1.42;;;1.05;;
10550;SDS011;5324;50.684;3.862;2023-04-28T11:24:16;1.10;;;1.10;;
10550;SDS011;5324;50.684;3.862;2023-04-28T11:26:43;1.20;;;1.10;;
10550;SDS011;5324;50.684;3.862;2023-04-28T11:29:10;2.97;;;1.30;;
10550;SDS011;5324;50.684;3.862;2023-04-28T11:31:36;1.13;;;0.90;;
10550;SDS011;5324;50.684;3.862;2023-04-28T11:34:03;0.98;;;0.98;;
10550;SDS011;5324;50.684;3.862;2023-04-28T11:36:31;3.28;;;0.90;;
10550;SDS011;5324;50.684;3.862;2023-04-28T11:39:00;0.90;;;0.90;;
10550;SDS011;5324;50.684;3.862;2023-04-28T11:41:26;0.93;;;0.93;;
10550;SDS011;5324;50.684;3.862;2023-04-28T11:43:52;1.33;;;1.20;;
10550;SDS011;5324;50.684;3.862;2023-04-28T11:46:20;1.38;;;1.00;;
10550;SDS011;5324;50.684;3.862;2023-04-28T11:48:46;1.25;;;1.00;;
10550;SDS011;5324;50.684;3.862;2023-04-28T11:51:29;1.38;;;1.00;;
10550;SDS011;5324;50.684;3.862;2023-04-28T11:53:58;2.30;;;1.20;;
10550;SDS011;5324;50.684;3.862;2023-04-28T11:56:25;1.20;;;1.10;;
10550;SDS011;5324;50.684;3.862;2023-04-28T11:59:04;2.05;;;0.95;;
10550;SDS011;5324;50.684;3.862;2023-04-28T12:01:32;1.08;;;1.08;;
10550;SDS011;5324;50.684;3.862;2023-04-28T12:03:58;1.40;;;1.10;;
10550;SDS011;5324;50.684;3.862;2023-04-28T12:06:25;1.00;;;0.90;;
10550;SDS011;5324;50.684;3.862;2023-04-28T12:08:52;0.60;;;0.60;;
10550;SDS011;5324;50.684;3.862;2023-04-28T12:11:20;1.67;;;0.90;;
10550;SDS011;5324;50.684;3.862;2023-04-28T12:14:07;0.98;;;0.80;;
10550;SDS011;5324;50.684;3.862;2023-04-28T12:16:37;1.05;;;0.90;;
10550;SDS011;5324;50.684;3.862;2023-04-28T12:19:07;2.40;;;1.10;;
10550;SDS011;5324;50.684;3.862;2023-04-28T12:21:35;1.17;;;1.10;;
10550;SDS011;5324;50.684;3.862;2023-04-28T12:24:11;1.25;;;1.00;;
10550;SDS011;5324;50.684;3.862;2023-04-28T12:26:38;1.00;;;1.00;;
10550;SDS011;5324;50.684;3.862;2023-04-28T12:29:06;1.25;;;0.88;;
10550;SDS011;5324;50.684;3.862;2023-04-28T12:31:50;1.75;;;0.98;;
10550;SDS011;5324;50.684;3.862;2023-04-28T12:34:17;1.17;;;1.08;;
10550;SDS011;5324;50.684;3.862;2023-04-28T12:36:44;1.55;;;1.15;;
10550;SDS011;5324;50.684;3.862;2023-04-28T12:39:15;0.98;;;0.98;;
10550;SDS011;5324;50.684;3.862;2023-04-28T12:41:43;1.63;;;1.25;;
10550;SDS011;5324;50.684;3.862;2023-04-28T12:44:10;1.10;;;1.00;;
10550;SDS011;5324;50.684;3.862;2023-04-28T12:46:36;3.03;;;1.55;;
10550;SDS011;5324;50.684;3.862;2023-04-28T12:49:02;1.08;;;1.00;;
10550;SDS011;5324;50.684;3.862;2023-04-28T12:51:28;1.17;;;1.08;;
10550;SDS011;5324;50.684;3.862;2023-04-28T12:53:54;1.10;;;1.10;;
10550;SDS011;5324;50.684;3.862;2023-04-28T12:56:20;1.30;;;1.20;;
10550;SDS011;5324;50.684;3.862;2023-04-28T12:58:47;1.75;;;1.17;;
10550;SDS011;5324;50.684;3.862;2023-04-28T13:01:13;1.10;;;1.10;;
10550;SDS011;5324;50.684;3.862;2023-04-28T13:03:40;0.82;;;0.80;;
10550;SDS011;5324;50.684;3.862;2023-04-28T13:06:08;1.30;;;1.20;;
10550;SDS011;5324;50.684;3.862;2023-04-28T13:08:35;1.92;;;0.95;;
10550;SDS011;5324;50.684;3.862;2023-04-28T13:11:01;0.93;;;0.90;;
10550;SDS011;5324;50.684;3.862;2023-04-28T13:13:29;2.95;;;0.95;;
10550;SDS011;5324;50.684;3.862;2023-04-28T13:15:55;0.98;;;0.98;;
10550;SDS011;5324;50.684;3.862;2023-04-28T13:18:22;0.88;;;0.88;;
10550;SDS011;5324;50.684;3.862;2023-04-28T13:20:48;0.95;;;0.90;;
10550;SDS011;5324;50.684;3.862;2023-04-28T13:23:14;0.90;;;0.90;;
10550;SDS011;5324;50.684;3.862;2023-04-28T13:25:40;1.65;;;1.13;;
10550;SDS011;5324;50.684;3.862;2023-04-28T13:28:06;0.70;;;0.70;;
10550;SDS011;5324;50.684;3.862;2023-04-28T13:30:32;0.80;;;0.80;;
10550;SDS011;5324;50.684;3.862;2023-04-28T13:32:58;2.35;;;0.98;;
10550;SDS011;5324;50.684;3.862;2023-04-28T13:35:24;1.55;;;0.68;;
10550;SDS011;5324;50.684;3.862;2023-04-28T13:37:51;0.90;;;0.90;;
10550;SDS011;5324;50.684;3.862;2023-04-28T13:40:25;0.95;;;0.95;;
10550;SDS011;5324;50.684;3.862;2023-04-28T13:42:51;0.80;;;0.80;;
10550;SDS011;5324;50.684;3.862;2023-04-28T13:45:17;0.88;;;0.85;;
10550;SDS011;5324;50.684;3.862;2023-04-28T13:47:43;0.98;;;0.98;;
10550;SDS011;5324;50.684;3.862;2023-04-28T13:50:09;0.90;;;0.90;;
10550;SDS011;5324;50.684;3.862;2023-04-28T13:52:35;1.02;;;1.02;;
10550;SDS011;5324;50.684;3.862;2023-04-28T13:55:01;1.10;;;1.10;;
10550;SDS011;5324;50.684;3.862;2023-04-28T13:57:27;1.13;;;0.93;;
10550;SDS011;5324;50.684;3.862;2023-04-28T13:59:53;0.80;;;0.80;;
10550;SDS011;5324;50.684;3.862;2023-04-28T14:02:19;0.70;;;0.70;;
10550;SDS011;5324;50.684;3.862;2023-04-28T14:04:46;6.38;;;1.17;;
10550;SDS011;5324;50.684;3.862;2023-04-28T14:07:14;6.70;;;0.90;;
10550;SDS011;5324;50.684;3.862;2023-04-28T14:09:40;1.20;;;0.85;;
10550;SDS011;5324;50.684;3.862;2023-04-28T14:12:06;0.80;;;0.80;;
10550;SDS011;5324;50.684;3.862;2023-04-28T14:14:34;0.80;;;0.80;;
10550;SDS011;5324;50.684;3.862;2023-04-28T14:17:00;1.38;;;0.75;;
10550;SDS011;5324;50.684;3.862;2023-04-28T14:19:28;2.22;;;1.30;;
10550;SDS011;5324;50.684;3.862;2023-04-28T14:21:55;0.80;;;0.80;;
10550;SDS011;5324;50.684;3.862;2023-04-28T14:24:21;0.90;;;0.90;;
10550;SDS011;5324;50.684;3.862;2023-04-28T14:26:47;1.40;;;0.70;;
10550;SDS011;5324;50.684;3.862;2023-04-28T14:29:13;0.80;;;0.80;;
10550;SDS011;5324;50.684;3.862;2023-04-28T14:31:41;4.07;;;0.90;;
10550;SDS011;5324;50.684;3.862;2023-04-28T14:34:07;0.90;;;0.90;;
10550;SDS011;5324;50.684;3.862;2023-04-28T14:36:33;1.35;;;0.93;;
10550;SDS011;5324;50.684;3.862;2023-04-28T14:38:59;1.20;;;1.00;;
10550;SDS011;5324;50.684;3.862;2023-04-28T14:41:25;2.72;;;0.90;;
10550;SDS011;5324;50.684;3.862;2023-04-28T14:43:51;0.95;;;0.95;;
10550;SDS011;5324;50.684;3.862;2023-04-28T14:46:17;1.73;;;0.98;;
10550;SDS011;5324;50.684;3.862;2023-04-28T14:48:47;1.48;;;1.13;;
10550;SDS011;5324;50.684;3.862;2023-04-28T14:51:13;0.70;;;0.70;;
10550;SDS011;5324;50.684;3.862;2023-04-28T14:53:39;0.98;;;0.90;;
10550;SDS011;5324;50.684;3.862;2023-04-28T14:56:06;1.00;;;1.00;;
10550;SDS011;5324;50.684;3.862;2023-04-28T14:58:33;1.25;;;1.15;;
10550;SDS011;5324;50.684;3.862;2023-04-28T15:00:59;0.88;;;0.88;;
10550;SDS011;5324;50.684;3.862;2023-04-28T15:03:27;1.75;;;1.10;;
10550;SDS011;5324;50.684;3.862;2023-04-28T15:05:53;1.08;;;1.08;;
10550;SDS011;5324;50.684;3.862;2023-04-28T15:08:19;1.10;;;0.98;;
10550;SDS011;5324;50.684;3.862;2023-04-28T15:10:45;1.02;;;0.95;;
10550;SDS011;5324;50.684;3.862;2023-04-28T15:13:11;0.80;;;0.80;;
10550;SDS011;5324;50.684;3.862;2023-04-28T15:15:37;1.00;;;0.90;;
10550;SDS011;5324;50.684;3.862;2023-04-28T15:18:04;1.17;;;1.02;;
10550;SDS011;5324;50.684;3.862;2023-04-28T15:20:30;1.23;;;0.73;;
10550;SDS011;5324;50.684;3.862;2023-04-28T15:23:02;0.80;;;0.80;;
10550;SDS011;5324;50.684;3.862;2023-04-28T15:25:28;0.95;;;0.95;;